Earl's Court, United Kingdom
Current Conditions -  °F | °C
As of 10:20 PM on Sunday 21 Dec 2014 (Local Time) from EGLC Reporting Station
Broken Clouds Broken Clouds  
Wind Chill: 54°   Ceiling: 1800
Heat Index: 54°   Visibility: 6mi
Dew Point: 48°   Wind: 21mph
Humidity: 82%   Direction: 240°WSW
Pressure: 30.15"   Gusts: NA
Location:  51.49°N, 0.19°W
Report Text: EGLC 212220Z AUTO 24018KT 9999 SCT012/// BKN018/// 12/09 Q1021
Loading
Personal Weather Stations






























Interactive Weather Map New forecast layout! Learn more

10-Day Weather Forecast

Advertisements
Track Severe Weather on mobile